createdAt,value
2023-02-02T00:00:45.813Z,7.22
2023-02-02T00:01:45.803Z,7.22
2023-02-02T00:02:46.198Z,7.21
2023-02-02T00:03:46.178Z,7.22
2023-02-02T00:04:45.891Z,7.21
2023-02-02T00:05:45.813Z,7.2
2023-02-02T00:06:45.870Z,7.2
2023-02-02T00:07:48.182Z,7.19
2023-02-02T00:08:45.911Z,7.19
2023-02-02T00:09:45.807Z,7.18
2023-02-02T00:10:45.878Z,7.16
2023-02-02T00:11:45.815Z,7.18
2023-02-02T00:12:45.917Z,7.18
2023-02-02T00:13:45.825Z,7.19
2023-02-02T00:14:45.784Z,7.23
2023-02-02T00:15:45.835Z,7.25
2023-02-02T00:16:45.825Z,7.26
2023-02-02T00:17:46.152Z,7.27
2023-02-02T00:18:50.606Z,7.25
2023-02-02T00:19:45.821Z,7.24
2023-02-02T00:20:45.932Z,7.23
2023-02-02T00:21:45.926Z,7.22
2023-02-02T00:22:46.143Z,7.22
2023-02-02T00:23:45.872Z,7.21
2023-02-02T00:24:45.884Z,7.22
2023-02-02T00:25:45.891Z,7.21
2023-02-02T00:26:46.601Z,7.22
2023-02-02T00:27:46.150Z,7.21
2023-02-02T00:28:45.887Z,7.25
2023-02-02T00:29:48.156Z,7.27
2023-02-02T00:30:45.923Z,7.28
2023-02-02T00:31:45.947Z,7.27
2023-02-02T00:32:46.149Z,7.27
2023-02-02T00:33:46.147Z,7.27
2023-02-02T00:34:45.938Z,7.28
2023-02-02T00:35:45.918Z,7.28
2023-02-02T00:36:45.847Z,7.28
2023-02-02T00:37:46.160Z,7.29
2023-02-02T00:38:45.834Z,7.28
2023-02-02T00:39:45.885Z,7.26
2023-02-02T00:40:48.119Z,7.26
2023-02-02T00:41:45.917Z,7.26
2023-02-02T00:42:46.153Z,7.25
2023-02-02T00:43:45.772Z,7.25
2023-02-02T00:44:45.783Z,7.26
2023-02-02T00:45:46.038Z,7.26
2023-02-02T00:46:45.836Z,7.25
2023-02-02T00:47:46.147Z,7.26
2023-02-02T00:48:46.161Z,7.27
2023-02-02T00:49:45.893Z,7.25
2023-02-02T00:50:45.868Z,7.24
2023-02-02T00:51:48.210Z,7.24
2023-02-02T00:52:46.154Z,7.25
2023-02-02T00:53:45.814Z,7.25
2023-02-02T00:54:45.903Z,7.26
2023-02-02T00:55:45.807Z,7.26
2023-02-02T00:56:45.827Z,7.26
2023-02-02T00:57:46.159Z,7.27
2023-02-02T00:58:45.946Z,7.27
2023-02-02T00:59:45.833Z,7.28
2023-02-02T01:00:45.838Z,7.29
2023-02-02T01:01:45.960Z,7.32
2023-02-02T01:02:50.556Z,7.31
2023-02-02T01:03:46.143Z,7.32
2023-02-02T01:04:45.803Z,7.32
2023-02-02T01:05:45.839Z,7.33
2023-02-02T01:06:45.839Z,7.35
2023-02-02T01:07:46.148Z,7.36
2023-02-02T01:08:45.863Z,7.37
2023-02-02T01:09:45.933Z,7.37
2023-02-02T01:10:45.869Z,7.38
2023-02-02T01:11:45.888Z,7.37
2023-02-02T01:12:46.150Z,7.37
2023-02-02T01:13:48.243Z,7.38
2023-02-02T01:14:45.791Z,7.39
2023-02-02T01:15:45.781Z,7.4
2023-02-02T01:16:45.878Z,7.39
2023-02-02T01:17:46.154Z,7.39
2023-02-02T01:18:46.148Z,7.38
2023-02-02T01:19:45.853Z,7.37
2023-02-02T01:20:45.839Z,7.37
2023-02-02T01:21:45.916Z,7.38
2023-02-02T01:22:46.147Z,7.37
2023-02-02T01:23:45.883Z,7.38
2023-02-02T01:24:48.223Z,7.38
2023-02-02T01:25:45.901Z,7.36
2023-02-02T01:26:45.908Z,7.36
2023-02-02T01:27:46.158Z,7.34
2023-02-02T01:28:45.829Z,7.35
2023-02-02T01:29:45.813Z,7.33
2023-02-02T01:30:45.816Z,7.28
2023-02-02T01:31:45.928Z,7.23
2023-02-02T01:32:46.151Z,7.18
2023-02-02T01:33:46.152Z,7.12
2023-02-02T01:34:45.831Z,7.08
2023-02-02T01:35:48.247Z,7.05
2023-02-02T01:36:45.920Z,7.02
2023-02-02T01:37:46.143Z,6.99
2023-02-02T01:38:45.890Z,6.96
2023-02-02T01:39:45.912Z,6.94
2023-02-02T01:40:45.871Z,6.95
2023-02-02T01:41:45.877Z,6.97
2023-02-02T01:42:46.163Z,6.97
2023-02-02T01:43:45.821Z,6.96
2023-02-02T01:44:45.915Z,6.97
2023-02-02T01:45:45.808Z,6.97
2023-02-02T01:46:48.155Z,6.99
2023-02-02T01:47:46.219Z,7.01
2023-02-02T01:48:46.153Z,7.03
2023-02-02T01:49:45.894Z,7.07
2023-02-02T01:50:45.854Z,7.07
2023-02-02T01:51:45.903Z,7.09
2023-02-02T01:52:46.153Z,7.11
2023-02-02T01:53:45.787Z,7.11
2023-02-02T01:54:45.921Z,7.12
2023-02-02T01:55:45.923Z,7.13
2023-02-02T01:56:45.901Z,7.13
2023-02-02T01:57:50.634Z,7.12
2023-02-02T01:58:45.804Z,7.12
2023-02-02T01:59:45.927Z,7.15
2023-02-02T02:00:47.082Z,7.14
2023-02-02T02:01:45.909Z,7.14
2023-02-02T02:02:46.282Z,7.14
2023-02-02T02:03:46.138Z,7.14
2023-02-02T02:04:45.792Z,7.14
2023-02-02T02:05:45.948Z,7.15
2023-02-02T02:06:45.826Z,7.16
2023-02-02T02:07:46.145Z,7.18
2023-02-02T02:08:48.148Z,7.22
2023-02-02T02:09:45.793Z,7.22
2023-02-02T02:10:45.791Z,7.25
2023-02-02T02:11:45.922Z,7.27
2023-02-02T02:12:46.157Z,7.27
2023-02-02T02:13:45.793Z,7.27
2023-02-02T02:14:45.886Z,7.27
2023-02-02T02:15:45.924Z,7.27
2023-02-02T02:16:45.911Z,7.28
2023-02-02T02:17:46.143Z,7.28
2023-02-02T02:18:46.149Z,7.29
2023-02-02T02:19:48.233Z,7.31
2023-02-02T02:20:45.799Z,7.31
2023-02-02T02:21:45.895Z,7.32
2023-02-02T02:22:46.155Z,7.32
2023-02-02T02:23:45.897Z,7.34
2023-02-02T02:24:45.922Z,7.34
2023-02-02T02:25:45.934Z,7.34
2023-02-02T02:26:46.067Z,7.33
2023-02-02T02:27:46.169Z,7.36
2023-02-02T02:28:45.813Z,7.36
2023-02-02T02:29:45.885Z,7.37
2023-02-02T02:30:48.207Z,7.37
2023-02-02T02:31:45.993Z,7.35
2023-02-02T02:32:46.143Z,7.35
2023-02-02T02:33:46.144Z,7.35
2023-02-02T02:34:45.864Z,7.36
2023-02-02T02:35:45.931Z,7.36
2023-02-02T02:36:45.888Z,7.35
2023-02-02T02:37:46.165Z,7.35
2023-02-02T02:38:45.910Z,7.33
2023-02-02T02:39:45.820Z,7.34
2023-02-02T02:40:45.914Z,7.34
2023-02-02T02:41:48.127Z,7.36
2023-02-02T02:42:46.148Z,7.37
2023-02-02T02:43:45.919Z,7.38
2023-02-02T02:44:45.924Z,7.37
2023-02-02T02:45:45.793Z,7.36
2023-02-02T02:46:45.862Z,7.35
2023-02-02T02:47:46.141Z,7.35
2023-02-02T02:48:46.166Z,7.36
2023-02-02T02:49:45.880Z,7.35
2023-02-02T02:50:45.878Z,7.33
2023-02-02T02:51:45.911Z,7.32
2023-02-02T02:52:50.605Z,7.3
2023-02-02T02:53:45.891Z,7.31
2023-02-02T02:54:45.891Z,7.3
2023-02-02T02:55:45.804Z,7.29
2023-02-02T02:56:45.822Z,7.3
2023-02-02T02:57:46.163Z,7.27
2023-02-02T02:58:45.835Z,7.26
2023-02-02T02:59:45.919Z,7.24
2023-02-02T03:00:45.892Z,7.21
2023-02-02T03:01:45.938Z,7.17
2023-02-02T03:02:46.174Z,7.13
2023-02-02T03:03:50.660Z,7.06
2023-02-02T03:04:45.876Z,7.03
2023-02-02T03:05:45.881Z,7
2023-02-02T03:06:45.815Z,6.98
2023-02-02T03:07:46.145Z,6.99
2023-02-02T03:08:45.794Z,6.94
2023-02-02T03:09:45.857Z,6.93
2023-02-02T03:10:45.928Z,6.98
2023-02-02T03:11:45.873Z,6.93
2023-02-02T03:12:46.212Z,6.95
2023-02-02T03:13:45.826Z,6.92
2023-02-02T03:14:48.136Z,6.95
2023-02-02T03:15:45.911Z,6.97
2023-02-02T03:16:45.813Z,6.98
2023-02-02T03:17:46.152Z,7.01
2023-02-02T03:18:46.152Z,7.04
2023-02-02T03:19:45.897Z,7.07
2023-02-02T03:20:45.897Z,7.07
2023-02-02T03:21:45.926Z,7.09
2023-02-02T03:22:46.143Z,7.09
2023-02-02T03:23:45.901Z,7.08
2023-02-02T03:24:45.865Z,7.1
2023-02-02T03:25:48.199Z,7.12
2023-02-02T03:26:45.951Z,7.1
2023-02-02T03:27:46.145Z,7.12
2023-02-02T03:28:45.956Z,7.12
2023-02-02T03:29:45.849Z,7.14
2023-02-02T03:30:46.125Z,7.15
2023-02-02T03:31:45.882Z,7.07
2023-02-02T03:32:46.064Z,7.08
2023-02-02T03:33:46.154Z,7.07
2023-02-02T03:34:45.918Z,7.06
2023-02-02T03:35:45.855Z,7
2023-02-02T03:36:48.148Z,7.05
2023-02-02T03:37:46.144Z,7.05
2023-02-02T03:38:45.929Z,7.03
2023-02-02T03:39:45.789Z,7.03
2023-02-02T03:40:45.877Z,7.01
2023-02-02T03:41:45.794Z,6.95
2023-02-02T03:42:46.155Z,6.92
2023-02-02T03:43:45.898Z,6.91
2023-02-02T03:44:45.932Z,6.89
2023-02-02T03:45:45.867Z,6.88
2023-02-02T03:46:45.828Z,6.87
2023-02-02T03:47:50.632Z,6.86
2023-02-02T03:48:46.154Z,6.85
2023-02-02T03:49:45.816Z,6.86
2023-02-02T03:50:45.905Z,6.85
2023-02-02T03:51:45.912Z,6.84
2023-02-02T03:52:46.151Z,6.81
2023-02-02T03:53:45.775Z,6.79
2023-02-02T03:54:45.908Z,6.78
2023-02-02T03:55:45.894Z,6.78
2023-02-02T03:56:45.840Z,6.77
2023-02-02T03:57:46.144Z,6.75
2023-02-02T03:58:48.232Z,6.73
2023-02-02T03:59:45.906Z,6.7
2023-02-02T04:00:45.825Z,6.72
2023-02-02T04:01:45.936Z,6.72
2023-02-02T04:02:46.154Z,6.71
2023-02-02T04:03:46.150Z,6.72
2023-02-02T04:04:45.930Z,6.75
2023-02-02T04:05:45.902Z,6.76
2023-02-02T04:06:45.800Z,6.74
2023-02-02T04:07:46.147Z,6.71
2023-02-02T04:08:45.886Z,6.77
2023-02-02T04:09:48.157Z,6.75
2023-02-02T04:10:45.818Z,6.77
2023-02-02T04:11:45.797Z,6.8
2023-02-02T04:12:45.903Z,6.8
2023-02-02T04:13:45.930Z,6.76
2023-02-02T04:14:45.787Z,6.81
2023-02-02T04:15:45.898Z,6.86
2023-02-02T04:16:45.929Z,6.9
2023-02-02T04:17:46.149Z,6.9
2023-02-02T04:18:46.152Z,6.92
2023-02-02T04:19:45.831Z,6.93
2023-02-02T04:20:48.177Z,6.92
2023-02-02T04:21:45.858Z,6.99
2023-02-02T04:22:46.151Z,7.02
2023-02-02T04:23:45.904Z,7.01
2023-02-02T04:24:45.892Z,7.01
2023-02-02T04:25:45.806Z,7.04
2023-02-02T04:26:46.294Z,7.08
2023-02-02T04:27:46.158Z,7.03
2023-02-02T04:28:45.943Z,7.08
2023-02-02T04:29:45.823Z,7.11
2023-02-02T04:30:45.868Z,7.1
2023-02-02T04:31:48.274Z,7.12
2023-02-02T04:32:46.155Z,7.14
2023-02-02T04:33:46.148Z,7.23
2023-02-02T04:34:45.784Z,7.21
2023-02-02T04:35:45.864Z,7.24
2023-02-02T04:36:45.876Z,7.25
2023-02-02T04:37:46.153Z,7.28
2023-02-02T04:38:45.802Z,7.3
2023-02-02T04:39:45.843Z,7.35
2023-02-02T04:40:45.931Z,7.34
2023-02-02T04:41:45.924Z,7.33
2023-02-02T04:42:50.613Z,7.35
2023-02-02T04:43:45.799Z,7.38
2023-02-02T04:44:45.880Z,7.32
2023-02-02T04:45:45.970Z,7.32
2023-02-02T04:46:45.888Z,7.35
2023-02-02T04:47:45.899Z,7.35
2023-02-02T04:48:46.146Z,7.38
2023-02-02T04:49:45.780Z,7.36
2023-02-02T04:50:45.914Z,7.42
2023-02-02T04:51:45.933Z,7.41
2023-02-02T04:52:46.144Z,7.42
2023-02-02T04:53:48.232Z,7.45
2023-02-02T04:54:45.908Z,7.44
2023-02-02T04:55:45.910Z,7.45
2023-02-02T04:56:45.894Z,7.45
2023-02-02T04:57:46.391Z,7.47
2023-02-02T04:58:45.916Z,7.46
2023-02-02T04:59:45.867Z,7.45
2023-02-02T05:00:45.965Z,7.46
2023-02-02T05:01:45.870Z,7.48
2023-02-02T05:02:46.147Z,7.46
2023-02-02T05:03:46.350Z,7.46
2023-02-02T05:04:48.287Z,7.45
2023-02-02T05:05:45.938Z,7.45
2023-02-02T05:06:45.919Z,7.46
2023-02-02T05:07:46.147Z,7.45
2023-02-02T05:08:45.812Z,7.44
2023-02-02T05:09:45.881Z,7.45
2023-02-02T05:10:45.915Z,7.44
2023-02-02T05:11:45.873Z,7.42
2023-02-02T05:12:47.254Z,7.41
2023-02-02T05:13:45.859Z,7.43
2023-02-02T05:14:45.908Z,7.43
2023-02-02T05:15:48.225Z,7.44
2023-02-02T05:16:46.058Z,7.42
2023-02-02T05:17:46.160Z,7.41
2023-02-02T05:18:46.152Z,7.41
2023-02-02T05:19:45.862Z,7.4
2023-02-02T05:20:45.947Z,7.39
2023-02-02T05:21:45.818Z,7.39
2023-02-02T05:22:46.154Z,7.37
2023-02-02T05:23:45.793Z,7.33
2023-02-02T05:24:45.815Z,7.33
2023-02-02T05:25:45.895Z,7.32
2023-02-02T05:26:48.246Z,7.32
2023-02-02T05:27:45.919Z,7.32
2023-02-02T05:28:45.894Z,7.31
2023-02-02T05:29:45.820Z,7.3
2023-02-02T05:30:45.841Z,7.26
2023-02-02T05:31:45.962Z,7.24
2023-02-02T05:32:45.935Z,7.2
2023-02-02T05:33:46.154Z,7.19
2023-02-02T05:34:45.812Z,7.17
2023-02-02T05:35:45.844Z,7.13
2023-02-02T05:36:45.933Z,7.21
2023-02-02T05:37:48.232Z,7.23
2023-02-02T05:38:46.172Z,7.23
2023-02-02T05:39:45.879Z,7.15
2023-02-02T05:40:45.780Z,7.17
2023-02-02T05:41:45.937Z,7.15
2023-02-02T05:42:45.939Z,7.15
2023-02-02T05:43:45.798Z,7.14
2023-02-02T05:44:46.150Z,7.13
2023-02-02T05:45:45.889Z,7.14
2023-02-02T05:46:45.853Z,7.16
2023-02-02T05:47:45.924Z,7.17
2023-02-02T05:48:50.548Z,7.19
2023-02-02T05:49:46.153Z,7.2
2023-02-02T05:50:45.783Z,7.2
2023-02-02T05:51:45.917Z,7.2
2023-02-02T05:52:45.909Z,7.22
2023-02-02T05:53:45.807Z,7.24
2023-02-02T05:54:46.164Z,7.27
2023-02-02T05:55:45.899Z,7.28
2023-02-02T05:56:45.896Z,7.31
2023-02-02T05:57:45.830Z,7.33
2023-02-02T05:58:45.808Z,7.36
2023-02-02T05:59:50.594Z,7.38
2023-02-02T06:00:45.861Z,7.41
2023-02-02T06:01:45.802Z,7.41
2023-02-02T06:02:45.924Z,7.4
2023-02-02T06:03:46.224Z,7.4
2023-02-02T06:04:46.152Z,7.39
2023-02-02T06:05:45.781Z,7.4
2023-02-02T06:06:45.777Z,7.33
2023-02-02T06:07:45.896Z,7.35
2023-02-02T06:08:45.812Z,7.34
2023-02-02T06:09:46.153Z,7.3
2023-02-02T06:10:48.155Z,7.29
2023-02-02T06:11:45.793Z,7.25
2023-02-02T06:12:45.937Z,7.23
2023-02-02T06:13:46.228Z,7.18
2023-02-02T06:14:45.952Z,7.13
2023-02-02T06:15:46.165Z,7.08
2023-02-02T06:16:45.817Z,7.04
2023-02-02T06:17:45.928Z,7.02
2023-02-02T06:18:46.152Z,6.98
2023-02-02T06:19:45.939Z,6.91
2023-02-02T06:20:45.765Z,6.9
2023-02-02T06:21:48.122Z,6.91
2023-02-02T06:22:45.797Z,6.86
2023-02-02T06:23:46.094Z,6.83
2023-02-02T06:24:45.800Z,6.83
2023-02-02T06:25:46.276Z,6.82
2023-02-02T06:26:45.874Z,6.81
2023-02-02T06:27:45.819Z,6.82
2023-02-02T06:28:45.947Z,6.79
2023-02-02T06:29:45.781Z,6.77
2023-02-02T06:30:46.020Z,6.74
2023-02-02T06:31:45.995Z,6.7
2023-02-02T06:32:48.228Z,6.68
2023-02-02T06:33:46.155Z,6.68
2023-02-02T06:34:45.848Z,6.68
2023-02-02T06:35:46.204Z,6.69
2023-02-02T06:36:45.859Z,6.7
2023-02-02T06:37:45.860Z,6.71
2023-02-02T06:38:45.805Z,6.74
2023-02-02T06:39:45.924Z,6.73
2023-02-02T06:40:46.150Z,6.76
2023-02-02T06:41:45.827Z,6.78
2023-02-02T06:42:45.858Z,6.82
2023-02-02T06:43:48.120Z,6.88
2023-02-02T06:44:45.887Z,6.88
2023-02-02T06:45:46.147Z,6.89
2023-02-02T06:46:45.812Z,6.93
2023-02-02T06:47:45.798Z,6.95
2023-02-02T06:48:45.918Z,7
2023-02-02T06:49:46.207Z,7.02
2023-02-02T06:50:45.833Z,7.03
2023-02-02T06:51:46.165Z,7.06
2023-02-02T06:52:45.925Z,7.08
2023-02-02T06:53:45.941Z,7.09
2023-02-02T06:54:48.256Z,7.11
2023-02-02T06:55:45.934Z,7.14
2023-02-02T06:56:45.920Z,7.17
2023-02-02T06:57:45.823Z,7.18
2023-02-02T06:58:45.933Z,7.19
2023-02-02T06:59:45.797Z,7.26
2023-02-02T07:00:45.821Z,7.29
2023-02-02T07:01:45.822Z,7.31
2023-02-02T07:02:45.995Z,7.33
2023-02-02T07:03:45.875Z,7.32
2023-02-02T07:04:46.160Z,7.32
2023-02-02T07:05:48.203Z,7.34
2023-02-02T07:06:46.162Z,7.51
2023-02-02T07:07:45.862Z,7.53
2023-02-02T07:08:45.911Z,7.57
2023-02-02T07:09:45.909Z,7.59
2023-02-02T07:11:11.547Z,7.62
2023-02-02T07:11:46.156Z,7.64
2023-02-02T07:12:45.936Z,7.63
2023-02-02T07:13:45.907Z,7.67
2023-02-02T07:14:45.869Z,7.71
2023-02-02T07:15:45.878Z,7.7
2023-02-02T07:16:50.674Z,7.74
2023-02-02T07:17:45.791Z,7.76
2023-02-02T07:18:45.919Z,7.81
2023-02-02T07:19:46.150Z,7.83
2023-02-02T07:20:45.924Z,7.84
2023-02-02T07:21:46.163Z,7.86
2023-02-02T07:22:45.837Z,7.85
2023-02-02T07:23:45.910Z,7.85
2023-02-02T07:24:45.852Z,7.91
2023-02-02T07:25:45.818Z,7.84
2023-02-02T07:26:45.979Z,7.87
2023-02-02T07:27:50.646Z,7.85
2023-02-02T07:28:45.911Z,7.9
2023-02-02T07:29:45.916Z,7.95
2023-02-02T07:30:45.958Z,7.91
2023-02-02T07:31:46.059Z,7.95
2023-02-02T07:32:45.866Z,7.91
2023-02-02T07:33:45.934Z,7.99
2023-02-02T07:34:46.152Z,7.92
2023-02-02T07:35:45.925Z,7.91
2023-02-02T07:36:45.884Z,7.9
2023-02-02T07:37:46.145Z,7.92
2023-02-02T07:38:48.302Z,7.89
2023-02-02T07:39:45.806Z,8.01
2023-02-02T07:40:45.872Z,8.02
2023-02-02T07:41:45.774Z,7.92
2023-02-02T07:42:46.459Z,7.92
2023-02-02T07:43:45.819Z,7.95
2023-02-02T07:44:45.957Z,7.95
2023-02-02T07:45:45.896Z,7.95
2023-02-02T07:46:45.945Z,7.93
2023-02-02T07:47:46.170Z,7.98
2023-02-02T07:48:45.800Z,7.96
2023-02-02T07:49:50.671Z,7.9
2023-02-02T07:50:45.896Z,7.96
2023-02-02T07:51:47.750Z,7.94
2023-02-02T07:52:46.161Z,7.96
2023-02-02T07:53:45.963Z,8.03
2023-02-02T07:54:45.930Z,7.97
2023-02-02T07:55:45.852Z,7.95
2023-02-02T07:56:45.930Z,8
2023-02-02T07:57:46.160Z,7.98
2023-02-02T07:58:45.947Z,8.11
2023-02-02T07:59:45.876Z,8.12
2023-02-02T08:00:48.262Z,8.09
2023-02-02T08:01:45.912Z,8.08
2023-02-02T08:02:46.182Z,8.02
2023-02-02T08:03:45.961Z,8.04
2023-02-02T08:04:46.156Z,7.99
2023-02-02T08:05:45.857Z,7.96
2023-02-02T08:06:45.905Z,8.05
2023-02-02T08:07:46.163Z,7.99
2023-02-02T08:08:45.921Z,8.06
2023-02-02T08:09:45.797Z,8.04
2023-02-02T08:10:45.859Z,8.12
2023-02-02T08:11:48.143Z,8.23
2023-02-02T08:12:45.897Z,8.29
2023-02-02T08:13:46.161Z,8.3
2023-02-02T08:14:45.796Z,8.24
2023-02-02T08:15:45.874Z,8.29
2023-02-02T08:16:45.948Z,8.31
2023-02-02T08:17:45.830Z,8.31
2023-02-02T08:18:46.163Z,8.37
2023-02-02T08:19:46.163Z,8.37
2023-02-02T08:20:45.850Z,8.38
2023-02-02T08:21:45.830Z,8.4
2023-02-02T08:22:48.296Z,8.37
2023-02-02T08:23:46.157Z,8.39
2023-02-02T08:24:45.811Z,8.39
2023-02-02T08:25:45.873Z,8.36
2023-02-02T08:26:45.837Z,8.38
2023-02-02T08:27:45.899Z,8.41
2023-02-02T08:28:46.152Z,8.38
2023-02-02T08:29:45.925Z,8.43
2023-02-02T08:30:46.057Z,8.44
2023-02-02T08:31:45.933Z,8.4
2023-02-02T08:32:45.881Z,8.41
2023-02-02T08:33:50.626Z,8.48
2023-02-02T08:34:46.149Z,8.52
2023-02-02T08:35:45.920Z,8.56
2023-02-02T08:36:45.777Z,8.5
2023-02-02T08:37:45.937Z,8.56
2023-02-02T08:38:46.164Z,8.56
2023-02-02T08:39:45.878Z,8.56
2023-02-02T08:40:45.902Z,8.54
2023-02-02T08:41:45.803Z,8.58
2023-02-02T08:42:45.803Z,8.58
2023-02-02T08:43:46.167Z,8.62
2023-02-02T08:46:01.605Z,8.73
2023-02-02T08:46:13.248Z,8.7
2023-02-02T08:46:45.889Z,8.83
2023-02-02T08:47:45.941Z,8.85
2023-02-02T08:48:46.162Z,8.89
2023-02-02T08:49:46.160Z,8.88
2023-02-02T08:50:45.941Z,8.86
2023-02-02T08:51:45.811Z,8.84
2023-02-02T08:52:45.921Z,8.87
2023-02-02T08:53:46.164Z,8.89
2023-02-02T08:54:45.920Z,8.94
2023-02-02T08:55:48.188Z,9
2023-02-02T08:56:45.789Z,9.01
2023-02-02T08:57:45.887Z,9.04
2023-02-02T08:58:46.308Z,9.04
2023-02-02T08:59:45.873Z,9.12
2023-02-02T09:00:45.953Z,9.27
2023-02-02T09:01:45.808Z,9.29
2023-02-02T09:02:45.789Z,9.47
2023-02-02T09:03:45.794Z,9.5
2023-02-02T09:04:46.156Z,9.55
2023-02-02T09:05:45.864Z,9.47
2023-02-02T09:06:48.147Z,9.54
2023-02-02T09:07:45.883Z,9.53
2023-02-02T09:08:45.885Z,9.5
2023-02-02T09:09:46.155Z,9.48
2023-02-02T09:10:45.791Z,9.39
2023-02-02T09:11:45.859Z,9.21
2023-02-02T09:12:45.784Z,9.16
2023-02-02T09:13:45.901Z,9.12
2023-02-02T09:14:46.173Z,9
2023-02-02T09:15:45.881Z,8.99
2023-02-02T09:16:46.057Z,9.11
2023-02-02T09:17:48.196Z,9.24
2023-02-02T09:18:45.807Z,9.23
2023-02-02T09:19:46.151Z,9.2
2023-02-02T09:20:45.872Z,9.15
2023-02-02T09:21:45.891Z,9.1
2023-02-02T09:22:45.842Z,8.99
2023-02-02T09:23:45.945Z,9.02
2023-02-02T09:24:46.148Z,8.98
2023-02-02T09:25:45.914Z,8.96
2023-02-02T09:26:45.947Z,8.99
2023-02-02T09:27:45.908Z,9
2023-02-02T09:28:48.211Z,9.03
2023-02-02T09:29:45.910Z,9.08
2023-02-02T09:30:45.873Z,9.02
2023-02-02T09:31:46.028Z,9.03
2023-02-02T09:32:45.905Z,9.08
2023-02-02T09:33:45.880Z,9.12
2023-02-02T09:34:46.156Z,9.17
2023-02-02T09:35:46.173Z,9.21
2023-02-02T09:36:45.936Z,9.22
2023-02-02T09:37:45.797Z,9.23
2023-02-02T09:38:45.930Z,9.22
2023-02-02T09:39:48.146Z,9.25
2023-02-02T09:40:46.156Z,9.26
2023-02-02T09:41:45.818Z,9.2
2023-02-02T09:42:45.840Z,9.19
2023-02-02T09:43:45.823Z,9.2
2023-02-02T09:44:45.848Z,9.16
2023-02-02T09:45:46.206Z,9.17
2023-02-02T09:46:45.926Z,9.18
2023-02-02T09:47:46.134Z,9.17
2023-02-02T09:48:45.915Z,9.21
2023-02-02T09:49:46.167Z,9.25
2023-02-02T09:50:50.595Z,9.23
2023-02-02T09:51:45.827Z,9.22
2023-02-02T09:52:45.831Z,9.21
2023-02-02T09:53:54.814Z,9.18
2023-02-02T09:54:45.943Z,9.11
2023-02-02T09:55:46.152Z,9.07
2023-02-02T09:56:45.905Z,9.03
2023-02-02T09:57:45.901Z,9.05
2023-02-02T09:58:45.831Z,9.11
2023-02-02T09:59:45.946Z,9.11
2023-02-02T10:00:46.164Z,9.14
2023-02-02T10:01:48.221Z,9.1
2023-02-02T10:02:45.915Z,9.05
2023-02-02T10:03:45.872Z,8.99
2023-02-02T10:04:46.152Z,8.98
2023-02-02T10:05:46.158Z,9
2023-02-02T10:06:45.911Z,9.02
2023-02-02T10:07:45.868Z,9.03
2023-02-02T10:08:45.896Z,9.07
2023-02-02T10:09:45.872Z,9.15
2023-02-02T10:10:46.179Z,9.07
2023-02-02T10:11:45.835Z,9.05
2023-02-02T10:12:48.251Z,9.05
2023-02-02T10:13:45.816Z,9.07
2023-02-02T10:14:45.922Z,9.02
2023-02-02T10:15:46.282Z,8.99
2023-02-02T10:16:45.835Z,9
2023-02-02T10:17:45.849Z,9.04
2023-02-02T10:18:45.810Z,9.06
2023-02-02T10:19:46.143Z,9.06
2023-02-02T10:20:46.150Z,9.06
2023-02-02T10:21:45.838Z,9
2023-02-02T10:22:45.826Z,8.97
2023-02-02T10:23:48.240Z,9.03
2023-02-02T10:24:45.814Z,9.06
2023-02-02T10:25:46.145Z,9.03
2023-02-02T10:26:45.814Z,9.03
2023-02-02T10:27:46.448Z,8.97
2023-02-02T10:28:45.863Z,9.02
2023-02-02T10:29:49.110Z,8.98
2023-02-02T10:30:46.065Z,8.94
2023-02-02T10:31:46.247Z,8.92
2023-02-02T10:32:45.881Z,9.03
2023-02-02T10:33:45.919Z,9.05
2023-02-02T10:34:55.560Z,9.08
2023-02-02T10:35:45.871Z,9.12
2023-02-02T10:36:46.161Z,9.19
2023-02-02T10:37:45.793Z,9.23
2023-02-02T10:38:45.830Z,9.34
2023-02-02T10:39:45.966Z,9.44
2023-02-02T10:40:45.872Z,9.59
2023-02-02T10:41:46.214Z,9.58
2023-02-02T10:42:45.916Z,9.61
2023-02-02T10:43:45.876Z,9.67
2023-02-02T10:44:45.930Z,9.65
2023-02-02T10:45:48.345Z,9.69
2023-02-02T10:46:46.151Z,9.77
2023-02-02T10:47:46.001Z,9.72
2023-02-02T10:48:45.813Z,9.68
2023-02-02T10:49:46.160Z,9.67
2023-02-02T10:50:45.912Z,9.64
2023-02-02T10:51:46.151Z,9.63
2023-02-02T10:52:45.815Z,9.68
2023-02-02T10:53:45.771Z,9.71
2023-02-02T10:54:56.034Z,9.55
2023-02-02T10:55:45.947Z,9.43
2023-02-02T10:56:50.660Z,9.39
2023-02-02T10:57:45.908Z,9.42
2023-02-02T10:58:45.928Z,9.46
2023-02-02T10:59:45.832Z,9.44
2023-02-02T11:00:45.798Z,9.48
2023-02-02T11:01:46.242Z,9.46
2023-02-02T11:02:45.920Z,9.4
2023-02-02T11:03:45.921Z,9.42
2023-02-02T11:04:45.937Z,9.4
2023-02-02T11:05:45.811Z,9.48
2023-02-02T11:06:46.166Z,9.54
2023-02-02T11:07:48.204Z,9.65
2023-02-02T11:08:45.864Z,9.68
2023-02-02T11:09:45.851Z,9.73
2023-02-02T11:10:45.942Z,9.77
2023-02-02T11:11:46.153Z,9.89
2023-02-02T11:12:45.878Z,9.97
2023-02-02T11:13:45.850Z,10.08
2023-02-02T11:14:46.256Z,10.03
2023-02-02T11:15:45.939Z,10.09
2023-02-02T11:16:46.183Z,10.2
2023-02-02T11:17:45.813Z,10.24
2023-02-02T11:18:48.256Z,10.26
2023-02-02T11:19:45.885Z,10.33
2023-02-02T11:20:46.158Z,10.37
2023-02-02T11:21:46.158Z,10.39
2023-02-02T11:22:45.798Z,10.32
2023-02-02T11:23:48.616Z,10.08
2023-02-02T11:24:45.906Z,9.94
2023-02-02T11:25:45.862Z,9.79
2023-02-02T11:26:46.209Z,9.67
2023-02-02T11:27:45.852Z,9.64
2023-02-02T11:28:45.875Z,9.58
2023-02-02T11:29:48.221Z,9.56
2023-02-02T11:30:45.973Z,9.51
2023-02-02T11:31:46.259Z,9.51
2023-02-02T11:32:45.920Z,9.43
2023-02-02T11:33:45.857Z,9.4
2023-02-02T11:34:45.885Z,9.49
2023-02-02T11:35:46.165Z,9.49
2023-02-02T11:36:46.143Z,9.63
2023-02-02T11:37:45.907Z,9.59
2023-02-02T11:38:45.900Z,9.49
2023-02-02T11:39:45.904Z,9.38
2023-02-02T11:40:48.244Z,9.21
2023-02-02T11:41:46.152Z,9.11
2023-02-02T11:42:45.802Z,9.11
2023-02-02T11:43:45.883Z,9.07
2023-02-02T11:44:45.875Z,8.96
2023-02-02T11:45:45.865Z,8.91
2023-02-02T11:46:46.230Z,8.94
2023-02-02T11:47:45.954Z,8.96
2023-02-02T11:48:45.929Z,8.97
2023-02-02T11:49:45.939Z,8.95
2023-02-02T11:50:46.177Z,8.98
2023-02-02T11:51:50.639Z,9.07
2023-02-02T11:52:45.813Z,9.18
2023-02-02T11:53:45.796Z,9.17
2023-02-02T11:54:45.849Z,9.15
2023-02-02T11:55:45.890Z,9.1
2023-02-02T11:56:46.154Z,9.11
2023-02-02T11:57:45.934Z,9.16
2023-02-02T11:58:45.975Z,9.11
2023-02-02T11:59:45.891Z,9.03
2023-02-02T12:00:45.931Z,9.02
2023-02-02T12:01:46.180Z,9.04
2023-02-02T12:02:48.248Z,9.13
2023-02-02T12:03:45.849Z,9.2
2023-02-02T12:04:45.841Z,9.32
2023-02-02T12:05:46.157Z,9.51
2023-02-02T12:06:46.155Z,9.67
2023-02-02T12:07:45.901Z,9.75
2023-02-02T12:08:45.884Z,9.83
2023-02-02T12:09:45.920Z,9.92
2023-02-02T12:10:45.877Z,10.06
2023-02-02T12:11:46.165Z,10.14
2023-02-02T12:12:45.828Z,10.2
2023-02-02T12:13:48.237Z,10.21
2023-02-02T12:14:45.866Z,10.14
2023-02-02T12:15:45.836Z,10.16
2023-02-02T12:16:46.151Z,10.17
2023-02-02T12:17:45.882Z,10.17
2023-02-02T12:18:45.859Z,10.14
2023-02-02T12:19:45.871Z,10.01
2023-02-02T12:20:46.153Z,10.01
2023-02-02T12:21:46.155Z,10.02
2023-02-02T12:22:45.912Z,9.97
2023-02-02T12:23:45.900Z,10.04
2023-02-02T12:24:48.147Z,10.12
2023-02-02T12:25:45.792Z,10.23
2023-02-02T12:26:46.290Z,10.32
2023-02-02T12:27:45.934Z,10.36
2023-02-02T12:28:45.793Z,10.42
2023-02-02T12:29:45.898Z,10.45
2023-02-02T12:30:45.988Z,10.49
2023-02-02T12:31:46.224Z,10.59
2023-02-02T12:32:45.929Z,10.65
2023-02-02T12:33:45.897Z,10.67
2023-02-02T12:34:45.898Z,10.65
2023-02-02T12:35:50.636Z,10.53
2023-02-02T12:36:46.154Z,10.38
2023-02-02T12:37:45.879Z,10.33
2023-02-02T12:38:45.786Z,10.23
2023-02-02T12:39:45.935Z,10.15
2023-02-02T12:40:45.885Z,10.04
2023-02-02T12:41:46.148Z,9.92
2023-02-02T12:42:45.801Z,9.78
2023-02-02T12:43:45.888Z,9.66
2023-02-02T12:44:45.814Z,9.53
2023-02-02T12:45:45.812Z,9.43
2023-02-02T12:46:50.631Z,9.34
2023-02-02T12:47:45.805Z,9.23
2023-02-02T12:48:45.856Z,9.15
2023-02-02T12:49:45.943Z,9.15
2023-02-02T12:50:46.161Z,9.13
2023-02-02T12:51:46.152Z,9.13
2023-02-02T12:52:45.823Z,9.15
2023-02-02T12:53:45.802Z,9.19
2023-02-02T12:54:50.984Z,9.24
2023-02-02T12:55:45.957Z,9.33
2023-02-02T12:56:46.152Z,9.37
2023-02-02T12:57:48.152Z,9.51
2023-02-02T12:58:45.934Z,9.6
2023-02-02T12:59:45.959Z,9.64
2023-02-02T13:00:45.959Z,9.67
2023-02-02T13:01:46.149Z,9.73
2023-02-02T13:02:45.932Z,9.86
2023-02-02T13:03:45.944Z,9.92
2023-02-02T13:04:45.859Z,10.01
2023-02-02T13:05:46.156Z,10.1
2023-02-02T13:06:46.146Z,10.16
2023-02-02T13:07:45.904Z,10.18
2023-02-02T13:08:48.260Z,10.18
2023-02-02T13:09:45.824Z,10.17
2023-02-02T13:10:45.937Z,10.18
2023-02-02T13:11:45.956Z,10.25
2023-02-02T13:12:46.165Z,10.28
2023-02-02T13:13:45.948Z,10.29
2023-02-02T13:14:45.851Z,10.29
2023-02-02T13:15:45.898Z,10.31
2023-02-02T13:16:45.937Z,10.29
2023-02-02T13:17:46.155Z,10.2
2023-02-02T13:18:45.868Z,10.09
2023-02-02T13:19:48.174Z,10.09